PWSweather.com
Personal Weather Stations
Station Observations
KNCGREEN1
Sw Greensboro, Greensboro, NC 27407

Sw GreensboroGreensboro, NC 27407

Lat: 36.04, Lon: -79.87

Elevation: 870

Station Type: Davis

http://www.weathertrek.com

Latest ConditionsUpdated 7:15:30 PM EST Sunday, Nov 19, 2017
Currently Today's Max Today's Min Today's Average
Temperature 43.1°F6.2°C 63.1°F17.3°C 43.1°F6.2°C 52.4°F11.3°C
Dew Point 25.3°F-3.7°C 54.6°F12.6°C 25.2°F-3.8°C 35.9°F2.2°C
Winds 3.0 mph W4.8 kmh W 14.0 mph WNW22.5 kmh WNW - 2.9 mph 4.7 kmh
Wind Gusts 7.0 mph11.3 kmh 20.0 mph32.2 kmh - -
Humidity 49% 86% 36% 55%
Pressure 29.93 in1013.5 mb 29.93 in1013.5 mb 29.41 in995.9 mb -
Hour Temp Dew Point Humidity Winds Wind Gusts Pressure Precip Precip Rate Daily Precip Total
07:15 PM 43.1°F6.2°C 25.3°F-3.7°C 49% 3.0 mph W4.8 kmh W 7.0 mph11.3 kmh 29.93 in1013.5 mb 0.00 in0.0 mm 0.00 in0.0 mm 0.03 in0.8 mm
07:10 PM 43.2°F6.2°C 25.4°F-3.7°C 49% 3.0 mph W4.8 kmh W 7.0 mph11.3 kmh 29.93 in1013.5 mb 0.00 in0.0 mm 0.00 in0.0 mm 0.03 in0.8 mm
07:05 PM 43.3°F6.3°C 25.4°F-3.7°C 49% 1.0 mph WSW1.6 kmh WSW 5.0 mph8.0 kmh 29.93 in1013.5 mb 0.00 in0.0 mm 0.00 in0.0 mm 0.03 in0.8 mm
07:00 PM 43.5°F6.4°C 25.6°F-3.6°C 49% 3.0 mph NNE4.8 kmh NNE 7.0 mph11.3 kmh 29.93 in1013.5 mb 0.00 in0.0 mm 0.00 in0.0 mm 0.03 in0.8 mm
06:55 PM 43.6°F6.4°C 25.7°F-3.5°C 49% 1.0 mph W1.6 kmh W 7.0 mph11.3 kmh 29.93 in1013.5 mb 0.00 in0.0 mm 0.00 in0.0 mm 0.03 in0.8 mm
06:50 PM 43.8°F6.6°C 25.9°F-3.4°C 49% 5.0 mph NW8.0 kmh NW 6.0 mph9.7 kmh 29.93 in1013.5 mb 0.00 in0.0 mm 0.00 in0.0 mm 0.03 in0.8 mm
06:45 PM 43.8°F6.6°C 25.9°F-3.4°C 49% Calm Calm 14.0 mph22.5 kmh 29.93 in1013.5 mb 0.00 in0.0 mm 0.00 in0.0 mm 0.03 in0.8 mm
06:40 PM 43.9°F6.6°C 26.0°F-3.3°C 49% 6.0 mph NW9.7 kmh NW 14.0 mph22.5 kmh 29.92 in1013.2 mb 0.00 in0.0 mm 0.00 in0.0 mm 0.03 in0.8 mm
06:35 PM 44.1°F6.7°C 26.7°F-2.9°C 50% 2.0 mph NNW3.2 kmh NNW 3.0 mph4.8 kmh 29.92 in1013.2 mb 0.00 in0.0 mm 0.00 in0.0 mm 0.03 in0.8 mm
06:30 PM 44.2°F6.8°C 26.8°F-2.9°C 50% Calm Calm 3.0 mph4.8 kmh 29.90 in1012.5 mb 0.00 in0.0 mm 0.00 in0.0 mm 0.03 in0.8 mm
06:25 PM 44.3°F6.8°C 26.9°F-2.8°C 50% 2.0 mph NNW3.2 kmh NNW 3.0 mph4.8 kmh 29.90 in1012.5 mb 0.00 in0.0 mm 0.00 in0.0 mm 0.03 in0.8 mm
06:20 PM 44.3°F6.8°C 26.9°F-2.8°C 50% 1.0 mph NNW1.6 kmh NNW 3.0 mph4.8 kmh 29.90 in1012.5 mb 0.00 in0.0 mm 0.00 in0.0 mm 0.03 in0.8 mm
06:15 PM 44.6°F7.0°C 26.6°F-3.0°C 49% 1.0 mph NNW1.6 kmh NNW 5.0 mph8.0 kmh 29.89 in1012.2 mb 0.00 in0.0 mm 0.00 in0.0 mm 0.03 in0.8 mm
06:10 PM 44.8°F7.1°C 27.3°F-2.6°C 50% Calm Calm 5.0 mph8.0 kmh 29.89 in1012.2 mb 0.00 in0.0 mm 0.00 in0.0 mm 0.03 in0.8 mm
06:05 PM 44.9°F7.2°C 26.9°F-2.8°C 49% Calm Calm 3.0 mph4.8 kmh 29.89 in1012.2 mb 0.00 in0.0 mm 0.00 in0.0 mm 0.03 in0.8 mm
06:00 PM 45.1°F7.3°C 27.1°F-2.7°C 49% 3.0 mph NNW4.8 kmh NNW 5.0 mph8.0 kmh 29.89 in1012.2 mb 0.00 in0.0 mm 0.00 in0.0 mm 0.03 in0.8 mm
05:55 PM 45.2°F7.3°C 26.7°F-2.9°C 48% Calm Calm 5.0 mph8.0 kmh 29.89 in1012.2 mb 0.00 in0.0 mm 0.00 in0.0 mm 0.03 in0.8 mm
05:50 PM 45.4°F7.4°C 26.9°F-2.8°C 48% Calm Calm 5.0 mph8.0 kmh 29.89 in1012.2 mb 0.00 in0.0 mm 0.00 in0.0 mm 0.03 in0.8 mm
05:45 PM 45.5°F7.5°C 27.0°F-2.8°C 48% 2.0 mph N3.2 kmh N 3.0 mph4.8 kmh 29.89 in1012.2 mb 0.00 in0.0 mm 0.00 in0.0 mm 0.03 in0.8 mm
05:40 PM 45.7°F7.6°C 26.6°F-3.0°C 47% Calm Calm 3.0 mph4.8 kmh 29.88 in1011.9 mb 0.00 in0.0 mm 0.00 in0.0 mm 0.03 in0.8 mm
05:35 PM 46.0°F7.8°C 26.9°F-2.8°C 47% Calm Calm 3.0 mph4.8 kmh 29.88 in1011.9 mb 0.00 in0.0 mm 0.00 in0.0 mm 0.03 in0.8 mm
05:30 PM 46.1°F7.8°C 27.0°F-2.8°C 47% Calm Calm 4.0 mph6.4 kmh 29.87 in1011.5 mb 0.00 in0.0 mm 0.00 in0.0 mm 0.03 in0.8 mm
05:25 PM 46.4°F8.0°C 26.8°F-2.9°C 46% Calm Calm 4.0 mph6.4 kmh 29.87 in1011.5 mb 0.00 in0.0 mm 0.00 in0.0 mm 0.03 in0.8 mm
05:20 PM 46.5°F8.1°C 26.9°F-2.8°C 46% 3.0 mph N4.8 kmh N 4.0 mph6.4 kmh 29.87 in1011.5 mb 0.00 in0.0 mm 0.00 in0.0 mm 0.03 in0.8 mm
05:15 PM 46.7°F8.2°C 26.5°F-3.1°C 45% Calm Calm 7.0 mph11.3 kmh 29.86 in1011.2 mb 0.00 in0.0 mm 0.00 in0.0 mm 0.03 in0.8 mm
05:10 PM 46.8°F8.2°C 26.6°F-3.0°C 45% 2.0 mph WSW3.2 kmh WSW 6.0 mph9.7 kmh 29.86 in1011.2 mb 0.00 in0.0 mm 0.00 in0.0 mm 0.03 in0.8 mm
05:05 PM 47.3°F8.5°C 27.1°F-2.7°C 45% 1.0 mph W1.6 kmh W 6.0 mph9.7 kmh 29.86 in1011.2 mb 0.00 in0.0 mm 0.00 in0.0 mm 0.03 in0.8 mm
05:00 PM 47.4°F8.6°C 26.6°F-3.0°C 44% 1.0 mph WNW1.6 kmh WNW 11.0 mph17.7 kmh 29.85 in1010.8 mb 0.00 in0.0 mm 0.00 in0.0 mm 0.03 in0.8 mm
04:55 PM 47.7°F8.7°C 26.9°F-2.8°C 44% Calm Calm 11.0 mph17.7 kmh 29.85 in1010.8 mb 0.00 in0.0 mm 0.00 in0.0 mm 0.03 in0.8 mm
04:50 PM 47.9°F8.8°C 26.5°F-3.1°C 43% 1.0 mph WNW1.6 kmh WNW 6.0 mph9.7 kmh 29.85 in1010.8 mb 0.00 in0.0 mm 0.00 in0.0 mm 0.03 in0.8 mm
04:45 PM 48.2°F9.0°C 26.8°F-2.9°C 43% 1.0 mph WSW1.6 kmh WSW 10.0 mph16.1 kmh 29.85 in1010.8 mb 0.00 in0.0 mm 0.00 in0.0 mm 0.03 in0.8 mm
04:40 PM 48.5°F9.2°C 26.5°F-3.1°C 42% 2.0 mph WNW3.2 kmh WNW 10.0 mph16.1 kmh 29.84 in1010.5 mb 0.00 in0.0 mm 0.00 in0.0 mm 0.03 in0.8 mm
04:35 PM 48.8°F9.3°C 26.7°F-2.9°C 42% 6.0 mph WSW9.7 kmh WSW 9.0 mph14.5 kmh 29.84 in1010.5 mb 0.00 in0.0 mm 0.00 in0.0 mm 0.03 in0.8 mm
04:30 PM 49.1°F9.5°C 26.4°F-3.1°C 41% 2.0 mph WSW3.2 kmh WSW 8.0 mph12.9 kmh 29.84 in1010.5 mb 0.00 in0.0 mm 0.00 in0.0 mm 0.03 in0.8 mm
04:25 PM 49.4°F9.7°C 26.7°F-2.9°C 41% 5.0 mph W8.0 kmh W 8.0 mph12.9 kmh 29.84 in1010.5 mb 0.00 in0.0 mm 0.00 in0.0 mm 0.03 in0.8 mm
04:20 PM 49.5°F9.7°C 26.2°F-3.2°C 40% 6.0 mph WNW9.7 kmh WNW 8.0 mph12.9 kmh 29.84 in1010.5 mb 0.00 in0.0 mm 0.00 in0.0 mm 0.03 in0.8 mm
04:15 PM 49.6°F9.8°C 25.7°F-3.5°C 39% 6.0 mph WSW9.7 kmh WSW 14.0 mph22.5 kmh 29.83 in1010.2 mb 0.00 in0.0 mm 0.00 in0.0 mm 0.03 in0.8 mm
04:10 PM 49.9°F9.9°C 26.0°F-3.3°C 39% 5.0 mph W8.0 kmh W 14.0 mph22.5 kmh 29.83 in1010.2 mb 0.00 in0.0 mm 0.00 in0.0 mm 0.03 in0.8 mm
04:05 PM 50.1°F10.1°C 26.1°F-3.3°C 39% 3.0 mph WNW4.8 kmh WNW 14.0 mph22.5 kmh 29.83 in1010.2 mb 0.00 in0.0 mm 0.00 in0.0 mm 0.03 in0.8 mm
04:00 PM 50.4°F10.2°C 25.8°F-3.4°C 38% Calm Calm 12.0 mph19.3 kmh 29.82 in1009.8 mb 0.00 in0.0 mm 0.00 in0.0 mm 0.03 in0.8 mm
03:55 PM 50.5°F10.3°C 25.2°F-3.8°C 37% 5.0 mph WNW8.0 kmh WNW 12.0 mph19.3 kmh 29.82 in1009.8 mb 0.00 in0.0 mm 0.00 in0.0 mm 0.03 in0.8 mm
03:50 PM 50.7°F10.4°C 26.0°F-3.3°C 38% 3.0 mph W4.8 kmh W 12.0 mph19.3 kmh 29.82 in1009.8 mb 0.00 in0.0 mm 0.00 in0.0 mm 0.03 in0.8 mm
03:45 PM 50.8°F10.4°C 26.1°F-3.3°C 38% 3.0 mph NNW4.8 kmh NNW 13.0 mph20.9 kmh 29.82 in1009.8 mb 0.00 in0.0 mm 0.00 in0.0 mm 0.03 in0.8 mm
03:40 PM 51.1°F10.6°C 26.4°F-3.1°C 38% 6.0 mph W9.7 kmh W 13.0 mph20.9 kmh 29.81 in1009.5 mb 0.00 in0.0 mm 0.00 in0.0 mm 0.03 in0.8 mm
03:35 PM 51.3°F10.7°C 25.9°F-3.4°C 37% 5.0 mph NW8.0 kmh NW 11.0 mph17.7 kmh 29.81 in1009.5 mb 0.00 in0.0 mm 0.00 in0.0 mm 0.03 in0.8 mm
03:30 PM 51.4°F10.8°C 26.7°F-2.9°C 38% 2.0 mph NW3.2 kmh NW 10.0 mph16.1 kmh 29.80 in1009.1 mb 0.00 in0.0 mm 0.00 in0.0 mm 0.03 in0.8 mm
03:25 PM 51.4°F10.8°C 26.0°F-3.3°C 37% 2.0 mph NW3.2 kmh NW 10.0 mph16.1 kmh 29.80 in1009.1 mb 0.00 in0.0 mm 0.00 in0.0 mm 0.03 in0.8 mm
03:20 PM 51.7°F10.9°C 26.3°F-3.2°C 37% 7.0 mph NW11.3 kmh NW 8.0 mph12.9 kmh 29.80 in1009.1 mb 0.00 in0.0 mm 0.00 in0.0 mm 0.03 in0.8 mm
03:15 PM 52.2°F11.2°C 26.1°F-3.3°C 36% 3.0 mph W4.8 kmh W 11.0 mph17.7 kmh 29.78 in1008.5 mb 0.00 in0.0 mm 0.00 in0.0 mm 0.03 in0.8 mm
03:10 PM 52.8°F11.6°C 27.9°F-2.3°C 38% 5.0 mph WNW8.0 kmh WNW 11.0 mph17.7 kmh 29.78 in1008.5 mb 0.00 in0.0 mm 0.00 in0.0 mm 0.03 in0.8 mm
03:05 PM 53.1°F11.7°C 28.8°F-1.8°C 39% 6.0 mph NW9.7 kmh NW 8.0 mph12.9 kmh 29.78 in1008.5 mb 0.00 in0.0 mm 0.00 in0.0 mm 0.03 in0.8 mm
03:00 PM 53.1°F11.7°C 28.8°F-1.8°C 39% 6.0 mph WNW9.7 kmh WNW 14.0 mph22.5 kmh 29.77 in1008.1 mb 0.00 in0.0 mm 0.00 in0.0 mm 0.03 in0.8 mm
02:55 PM 53.2°F11.8°C 28.3°F-2.1°C 38% 2.0 mph WNW3.2 kmh WNW 14.0 mph22.5 kmh 29.77 in1008.1 mb 0.00 in0.0 mm 0.00 in0.0 mm 0.03 in0.8 mm
02:50 PM 53.2°F11.8°C 28.3°F-2.1°C 38% 4.0 mph SW6.4 kmh SW 11.0 mph17.7 kmh 29.77 in1008.1 mb 0.00 in0.0 mm 0.00 in0.0 mm 0.03 in0.8 mm
02:45 PM 53.2°F11.8°C 29.5°F-1.4°C 40% 1.0 mph NW1.6 kmh NW 13.0 mph20.9 kmh 29.77 in1008.1 mb 0.00 in0.0 mm 0.00 in0.0 mm 0.03 in0.8 mm
02:40 PM 53.1°F11.7°C 30.6°F-0.8°C 42% Calm Calm 13.0 mph20.9 kmh 29.76 in1007.8 mb 0.00 in0.0 mm 0.00 in0.0 mm 0.03 in0.8 mm
02:35 PM 53.3°F11.8°C 30.2°F-1.0°C 41% 4.0 mph N6.4 kmh N 13.0 mph20.9 kmh 29.76 in1007.8 mb 0.00 in0.0 mm 0.00 in0.0 mm 0.03 in0.8 mm
02:30 PM 53.6°F12.0°C 29.9°F-1.2°C 40% 2.0 mph NNW3.2 kmh NNW 11.0 mph17.7 kmh 29.76 in1007.8 mb 0.00 in0.0 mm 0.00 in0.0 mm 0.03 in0.8 mm
02:25 PM 53.6°F12.0°C 29.9°F-1.2°C 40% 7.0 mph WSW11.3 kmh WSW 11.0 mph17.7 kmh 29.76 in1007.8 mb 0.00 in0.0 mm 0.00 in0.0 mm 0.03 in0.8 mm
02:20 PM 53.5°F11.9°C 29.8°F-1.2°C 40% 1.0 mph NW1.6 kmh NW 11.0 mph17.7 kmh 29.76 in1007.8 mb 0.00 in0.0 mm 0.00 in0.0 mm 0.03 in0.8 mm
02:15 PM 53.3°F11.8°C 29.0°F-1.7°C 39% 2.0 mph N3.2 kmh N 11.0 mph17.7 kmh 29.76 in1007.8 mb 0.00 in0.0 mm 0.00 in0.0 mm 0.03 in0.8 mm
02:10 PM 53.5°F11.9°C 29.2°F-1.6°C 39% 2.0 mph N3.2 kmh N 10.0 mph16.1 kmh 29.76 in1007.8 mb 0.00 in0.0 mm 0.00 in0.0 mm 0.03 in0.8 mm
02:05 PM 53.3°F11.8°C 29.0°F-1.7°C 39% 7.0 mph W11.3 kmh W 10.0 mph16.1 kmh 29.76 in1007.8 mb 0.00 in0.0 mm 0.00 in0.0 mm 0.03 in0.8 mm
02:00 PM 53.3°F11.8°C 28.4°F-2.0°C 38% 5.0 mph WSW8.0 kmh WSW 11.0 mph17.7 kmh 29.76 in1007.8 mb 0.00 in0.0 mm 0.00 in0.0 mm 0.03 in0.8 mm
01:55 PM 53.5°F11.9°C 28.5°F-1.9°C 38% 1.0 mph NNW1.6 kmh NNW 11.0 mph17.7 kmh 29.76 in1007.8 mb 0.00 in0.0 mm 0.00 in0.0 mm 0.03 in0.8 mm
01:50 PM 53.3°F11.8°C 28.4°F-2.0°C 38% 6.0 mph NNW9.7 kmh NNW 10.0 mph16.1 kmh 29.76 in1007.8 mb 0.00 in0.0 mm 0.00 in0.0 mm 0.03 in0.8 mm
01:45 PM 53.3°F11.8°C 28.4°F-2.0°C 38% 2.0 mph WNW3.2 kmh WNW 20.0 mph32.2 kmh 29.76 in1007.8 mb 0.00 in0.0 mm 0.00 in0.0 mm 0.03 in0.8 mm
01:40 PM 53.3°F11.8°C 27.7°F-2.4°C 37% 3.0 mph WNW4.8 kmh WNW 20.0 mph32.2 kmh 29.76 in1007.8 mb 0.00 in0.0 mm 0.00 in0.0 mm 0.03 in0.8 mm
01:35 PM 53.6°F12.0°C 28.0°F-2.2°C 37% Calm Calm 12.0 mph19.3 kmh 29.76 in1007.8 mb 0.00 in0.0 mm 0.00 in0.0 mm 0.03 in0.8 mm
01:30 PM 53.6°F12.0°C 28.0°F-2.2°C 37% 5.0 mph NW8.0 kmh NW 14.0 mph22.5 kmh 29.76 in1007.8 mb 0.00 in0.0 mm 0.00 in0.0 mm 0.03 in0.8 mm
01:25 PM 53.3°F11.8°C 27.7°F-2.4°C 37% 14.0 mph NW22.5 kmh NW 14.0 mph22.5 kmh 29.76 in1007.8 mb 0.00 in0.0 mm 0.00 in0.0 mm 0.03 in0.8 mm
01:20 PM 53.2°F11.8°C 27.6°F-2.4°C 37% 6.0 mph W9.7 kmh W 11.0 mph17.7 kmh 29.76 in1007.8 mb 0.00 in0.0 mm 0.00 in0.0 mm 0.03 in0.8 mm
01:15 PM 53.3°F11.8°C 27.7°F-2.4°C 37% 5.0 mph WNW8.0 kmh WNW 13.0 mph20.9 kmh 29.75 in1007.5 mb 0.00 in0.0 mm 0.00 in0.0 mm 0.03 in0.8 mm
01:10 PM 53.5°F11.9°C 28.5°F-1.9°C 38% 3.0 mph NNW4.8 kmh NNW 13.0 mph20.9 kmh 29.75 in1007.5 mb 0.00 in0.0 mm 0.00 in0.0 mm 0.03 in0.8 mm
01:05 PM 53.2°F11.8°C 29.5°F-1.4°C 40% 3.0 mph W4.8 kmh W 12.0 mph19.3 kmh 29.75 in1007.5 mb 0.00 in0.0 mm 0.00 in0.0 mm 0.03 in0.8 mm
01:00 PM 53.1°F11.7°C 29.4°F-1.4°C 40% 5.0 mph WSW8.0 kmh WSW 17.0 mph27.4 kmh 29.75 in1007.5 mb 0.00 in0.0 mm 0.00 in0.0 mm 0.03 in0.8 mm
12:55 PM 53.2°F11.8°C 28.9°F-1.7°C 39% 6.0 mph NNW9.7 kmh NNW 12.0 mph19.3 kmh 29.75 in1007.5 mb 0.00 in0.0 mm 0.00 in0.0 mm 0.03 in0.8 mm
12:50 PM 53.3°F11.8°C 27.7°F-2.4°C 37% 6.0 mph W9.7 kmh W 10.0 mph16.1 kmh 29.75 in1007.5 mb 0.00 in0.0 mm 0.00 in0.0 mm 0.03 in0.8 mm
12:45 PM 53.3°F11.8°C 27.7°F-2.4°C 37% 7.0 mph W11.3 kmh W 13.0 mph20.9 kmh 29.75 in1007.5 mb 0.00 in0.0 mm 0.00 in0.0 mm 0.03 in0.8 mm
12:40 PM 53.5°F11.9°C 27.9°F-2.3°C 37% 3.0 mph NW4.8 kmh NW 12.0 mph19.3 kmh 29.75 in1007.5 mb 0.00 in0.0 mm 0.00 in0.0 mm 0.03 in0.8 mm
12:35 PM 53.5°F11.9°C 30.4°F-0.9°C 41% 2.0 mph N3.2 kmh N 5.0 mph8.0 kmh 29.75 in1007.5 mb 0.00 in0.0 mm 0.00 in0.0 mm 0.03 in0.8 mm
12:30 PM 53.2°F11.8°C 31.3°F-0.4°C 43% 3.0 mph WSW4.8 kmh WSW 10.0 mph16.1 kmh 29.75 in1007.5 mb 0.00 in0.0 mm 0.00 in0.0 mm 0.03 in0.8 mm
12:25 PM 53.2°F11.8°C 30.7°F-0.7°C 42% 5.0 mph W8.0 kmh W 10.0 mph16.1 kmh 29.75 in1007.5 mb 0.00 in0.0 mm 0.00 in0.0 mm 0.03 in0.8 mm
12:20 PM 53.2°F11.8°C 30.1°F-1.1°C 41% 3.0 mph NNW4.8 kmh NNW 8.0 mph12.9 kmh 29.75 in1007.5 mb 0.00 in0.0 mm 0.00 in0.0 mm 0.03 in0.8 mm
12:15 PM 53.1°F11.7°C 29.4°F-1.4°C 40% 4.0 mph NNW6.4 kmh NNW 11.0 mph17.7 kmh 29.76 in1007.8 mb 0.00 in0.0 mm 0.00 in0.0 mm 0.03 in0.8 mm
12:10 PM 53.1°F11.7°C 30.0°F-1.1°C 41% 6.0 mph WNW9.7 kmh WNW 11.0 mph17.7 kmh 29.76 in1007.8 mb 0.00 in0.0 mm 0.00 in0.0 mm 0.03 in0.8 mm
12:05 PM 52.8°F11.6°C 29.8°F-1.2°C 41% 3.0 mph WNW4.8 kmh WNW 11.0 mph17.7 kmh 29.76 in1007.8 mb 0.00 in0.0 mm 0.00 in0.0 mm 0.03 in0.8 mm
12:00 PM 52.8°F11.6°C 29.8°F-1.2°C 41% 2.0 mph WNW3.2 kmh WNW 12.0 mph19.3 kmh 29.76 in1007.8 mb 0.00 in0.0 mm 0.00 in0.0 mm 0.03 in0.8 mm
11:55 AM 52.8°F11.6°C 29.8°F-1.2°C 41% 2.0 mph NW3.2 kmh NW 12.0 mph19.3 kmh 29.76 in1007.8 mb 0.00 in0.0 mm 0.00 in0.0 mm 0.03 in0.8 mm
11:50 AM 52.8°F11.6°C 29.8°F-1.2°C 41% 5.0 mph WNW8.0 kmh WNW 12.0 mph19.3 kmh 29.76 in1007.8 mb 0.00 in0.0 mm 0.00 in0.0 mm 0.03 in0.8 mm
11:45 AM 52.5°F11.4°C 30.7°F-0.7°C 43% 3.0 mph NW4.8 kmh NW 11.0 mph17.7 kmh 29.76 in1007.8 mb 0.00 in0.0 mm 0.00 in0.0 mm 0.03 in0.8 mm
11:40 AM 52.3°F11.3°C 29.9°F-1.2°C 42% 10.0 mph SW16.1 kmh SW 11.0 mph17.7 kmh 29.76 in1007.8 mb 0.00 in0.0 mm 0.00 in0.0 mm 0.03 in0.8 mm
11:35 AM 52.3°F11.3°C 29.9°F-1.2°C 42% 4.0 mph W6.4 kmh W 7.0 mph11.3 kmh 29.76 in1007.8 mb 0.00 in0.0 mm 0.00 in0.0 mm 0.03 in0.8 mm
11:30 AM 52.5°F11.4°C 30.1°F-1.1°C 42% 5.0 mph WNW8.0 kmh WNW 14.0 mph22.5 kmh 29.77 in1008.1 mb 0.00 in0.0 mm 0.00 in0.0 mm 0.03 in0.8 mm
11:25 AM 52.3°F11.3°C 29.3°F-1.5°C 41% 2.0 mph WNW3.2 kmh WNW 10.0 mph16.1 kmh 29.77 in1008.1 mb 0.00 in0.0 mm 0.00 in0.0 mm 0.03 in0.8 mm
11:20 AM 51.9°F11.1°C 30.1°F-1.1°C 43% 5.0 mph SW8.0 kmh SW 10.0 mph16.1 kmh 29.77 in1008.1 mb 0.00 in0.0 mm 0.00 in0.0 mm 0.03 in0.8 mm
11:15 AM 51.7°F10.9°C 29.9°F-1.2°C 43% 5.0 mph WNW8.0 kmh WNW 13.0 mph20.9 kmh 29.77 in1008.1 mb 0.00 in0.0 mm 0.00 in0.0 mm 0.03 in0.8 mm
11:10 AM 51.6°F10.9°C 30.4°F-0.9°C 44% 7.0 mph W11.3 kmh W 10.0 mph16.1 kmh 29.77 in1008.1 mb 0.00 in0.0 mm 0.00 in0.0 mm 0.03 in0.8 mm
11:05 AM 51.1°F10.6°C 31.1°F-0.5°C 46% 5.0 mph W8.0 kmh W 9.0 mph14.5 kmh 29.77 in1008.1 mb 0.00 in0.0 mm 0.00 in0.0 mm 0.03 in0.8 mm
11:00 AM 51.0°F10.6°C 31.5°F-0.3°C 47% 2.0 mph NNW3.2 kmh NNW 12.0 mph19.3 kmh 29.78 in1008.5 mb 0.00 in0.0 mm 0.00 in0.0 mm 0.03 in0.8 mm
10:55 AM 50.7°F10.4°C 30.7°F-0.7°C 46% 5.0 mph WSW8.0 kmh WSW 12.0 mph19.3 kmh 29.78 in1008.5 mb 0.00 in0.0 mm 0.00 in0.0 mm 0.03 in0.8 mm
10:50 AM 50.8°F10.4°C 30.8°F-0.7°C 46% 6.0 mph WNW9.7 kmh WNW 12.0 mph19.3 kmh 29.78 in1008.5 mb 0.00 in0.0 mm 0.00 in0.0 mm 0.03 in0.8 mm
10:45 AM 50.7°F10.4°C 30.7°F-0.7°C 46% 1.0 mph NNW1.6 kmh NNW 8.0 mph12.9 kmh 29.78 in1008.5 mb 0.00 in0.0 mm 0.00 in0.0 mm 0.03 in0.8 mm
10:40 AM 50.5°F10.3°C 31.0°F-0.6°C 47% 2.0 mph NW3.2 kmh NW 8.0 mph12.9 kmh 29.77 in1008.1 mb 0.00 in0.0 mm 0.00 in0.0 mm 0.03 in0.8 mm
10:35 AM 50.5°F10.3°C 31.6°F-0.2°C 48% 1.0 mph WNW1.6 kmh WNW 8.0 mph12.9 kmh 29.77 in1008.1 mb 0.00 in0.0 mm 0.00 in0.0 mm 0.03 in0.8 mm
10:30 AM 50.5°F10.3°C 31.6°F-0.2°C 48% 2.0 mph NW3.2 kmh NW 11.0 mph17.7 kmh 29.76 in1007.8 mb 0.00 in0.0 mm 0.00 in0.0 mm 0.03 in0.8 mm
10:25 AM 50.5°F10.3°C 32.1°F0.1°C 49% 6.0 mph 9.7 kmh 10.0 mph16.1 kmh 29.76 in1007.8 mb 0.00 in0.0 mm 0.00 in0.0 mm 0.03 in0.8 mm
10:20 AM 50.4°F10.2°C 32.5°F0.3°C 50% 10.0 mph WNW16.1 kmh WNW 10.0 mph16.1 kmh 29.76 in1007.8 mb 0.00 in0.0 mm 0.00 in0.0 mm 0.03 in0.8 mm
10:15 AM 50.4°F10.2°C 33.0°F0.6°C 51% 3.0 mph WSW4.8 kmh WSW 9.0 mph14.5 kmh 29.76 in1007.8 mb 0.00 in0.0 mm 0.00 in0.0 mm 0.03 in0.8 mm
10:10 AM 50.4°F10.2°C 32.5°F0.3°C 50% 2.0 mph NW3.2 kmh NW 8.0 mph12.9 kmh 29.76 in1007.8 mb 0.00 in0.0 mm 0.00 in0.0 mm 0.03 in0.8 mm
10:05 AM 50.2°F10.1°C 32.3°F0.2°C 50% 4.0 mph W6.4 kmh W 7.0 mph11.3 kmh 29.76 in1007.8 mb 0.00 in0.0 mm 0.00 in0.0 mm 0.03 in0.8 mm
10:00 AM 50.2°F10.1°C 32.8°F0.4°C 51% 1.0 mph NNW1.6 kmh NNW 8.0 mph12.9 kmh 29.76 in1007.8 mb 0.00 in0.0 mm 0.00 in0.0 mm 0.03 in0.8 mm
09:55 AM 50.1°F10.1°C 32.7°F0.4°C 51% 3.0 mph NW4.8 kmh NW 8.0 mph12.9 kmh 29.76 in1007.8 mb 0.00 in0.0 mm 0.00 in0.0 mm 0.03 in0.8 mm
09:50 AM 50.1°F10.1°C 32.2°F0.1°C 50% 6.0 mph WSW9.7 kmh WSW 8.0 mph12.9 kmh 29.76 in1007.8 mb 0.00 in0.0 mm 0.00 in0.0 mm 0.03 in0.8 mm
09:45 AM 50.1°F10.1°C 32.7°F0.4°C 51% 4.0 mph W6.4 kmh W 12.0 mph19.3 kmh 29.76 in1007.8 mb 0.00 in0.0 mm 0.00 in0.0 mm 0.03 in0.8 mm
09:40 AM 50.1°F10.1°C 32.2°F0.1°C 50% 3.0 mph WSW4.8 kmh WSW 11.0 mph17.7 kmh 29.76 in1007.8 mb 0.00 in0.0 mm 0.00 in0.0 mm 0.03 in0.8 mm
09:35 AM 50.2°F10.1°C 32.8°F0.4°C 51% 3.0 mph W4.8 kmh W 10.0 mph16.1 kmh 29.76 in1007.8 mb 0.00 in0.0 mm 0.00 in0.0 mm 0.03 in0.8 mm
09:30 AM 50.2°F10.1°C 33.3°F0.7°C 52% 1.0 mph WNW1.6 kmh WNW 10.0 mph16.1 kmh 29.74 in1007.1 mb 0.00 in0.0 mm 0.00 in0.0 mm 0.03 in0.8 mm
09:25 AM 50.1°F10.1°C 33.7°F0.9°C 53% 5.0 mph NW8.0 kmh NW 10.0 mph16.1 kmh 29.74 in1007.1 mb 0.00 in0.0 mm 0.00 in0.0 mm 0.03 in0.8 mm
09:20 AM 49.9°F9.9°C 34.4°F1.3°C 55% 3.0 mph NW4.8 kmh NW 6.0 mph9.7 kmh 29.74 in1007.1 mb 0.00 in0.0 mm 0.00 in0.0 mm 0.03 in0.8 mm
09:15 AM 49.6°F9.8°C 33.2°F0.7°C 53% 5.0 mph WNW8.0 kmh WNW 14.0 mph22.5 kmh 29.74 in1007.1 mb 0.00 in0.0 mm 0.00 in0.0 mm 0.03 in0.8 mm
09:10 AM 49.5°F9.7°C 33.6°F0.9°C 54% 2.0 mph WNW3.2 kmh WNW 14.0 mph22.5 kmh 29.74 in1007.1 mb 0.00 in0.0 mm 0.00 in0.0 mm 0.03 in0.8 mm
09:05 AM 49.4°F9.7°C 33.9°F1.1°C 55% 6.0 mph NW9.7 kmh NW 11.0 mph17.7 kmh 29.74 in1007.1 mb 0.00 in0.0 mm 0.00 in0.0 mm 0.03 in0.8 mm
09:00 AM 49.4°F9.7°C 33.9°F1.1°C 55% 2.0 mph NW3.2 kmh NW 13.0 mph20.9 kmh 29.73 in1006.8 mb 0.00 in0.0 mm 0.00 in0.0 mm 0.03 in0.8 mm
08:55 AM 49.1°F9.5°C 35.0°F1.7°C 58% 2.0 mph N3.2 kmh N 10.0 mph16.1 kmh 29.73 in1006.8 mb 0.00 in0.0 mm 0.00 in0.0 mm 0.03 in0.8 mm
08:50 AM 48.9°F9.4°C 34.8°F1.6°C 58% 3.0 mph WSW4.8 kmh WSW 10.0 mph16.1 kmh 29.73 in1006.8 mb 0.00 in0.0 mm 0.00 in0.0 mm 0.03 in0.8 mm
08:45 AM 48.8°F9.3°C 35.1°F1.7°C 59% 5.0 mph W8.0 kmh W 7.0 mph11.3 kmh 29.73 in1006.8 mb 0.00 in0.0 mm 0.00 in0.0 mm 0.03 in0.8 mm
08:40 AM 48.6°F9.2°C 34.9°F1.6°C 59% 1.0 mph WNW1.6 kmh WNW 5.0 mph8.0 kmh 29.72 in1006.4 mb 0.00 in0.0 mm 0.00 in0.0 mm 0.03 in0.8 mm
08:35 AM 48.6°F9.2°C 35.4°F1.9°C 60% 3.0 mph WNW4.8 kmh WNW 5.0 mph8.0 kmh 29.72 in1006.4 mb 0.00 in0.0 mm 0.00 in0.0 mm 0.03 in0.8 mm
08:30 AM 48.5°F9.2°C 34.8°F1.6°C 59% 2.0 mph W3.2 kmh W 8.0 mph12.9 kmh 29.72 in1006.4 mb 0.00 in0.0 mm 0.00 in0.0 mm 0.03 in0.8 mm
08:25 AM 48.3°F9.1°C 34.7°F1.5°C 59% 4.0 mph WSW6.4 kmh WSW 6.0 mph9.7 kmh 29.72 in1006.4 mb 0.00 in0.0 mm 0.00 in0.0 mm 0.03 in0.8 mm
08:20 AM 48.3°F9.1°C 34.7°F1.5°C 59% 5.0 mph W8.0 kmh W 6.0 mph9.7 kmh 29.72 in1006.4 mb 0.00 in0.0 mm 0.00 in0.0 mm 0.03 in0.8 mm
08:15 AM 48.3°F9.1°C 34.2°F1.2°C 58% 2.0 mph W3.2 kmh W 7.0 mph11.3 kmh 29.71 in1006.1 mb 0.00 in0.0 mm 0.00 in0.0 mm 0.03 in0.8 mm
08:10 AM 48.3°F9.1°C 33.8°F1.0°C 57% 1.0 mph WSW1.6 kmh WSW 7.0 mph11.3 kmh 29.71 in1006.1 mb 0.00 in0.0 mm 0.00 in0.0 mm 0.03 in0.8 mm
08:05 AM 48.3°F9.1°C 33.4°F0.8°C 56% 2.0 mph NNW3.2 kmh NNW 7.0 mph11.3 kmh 29.71 in1006.1 mb 0.00 in0.0 mm 0.00 in0.0 mm 0.03 in0.8 mm
08:00 AM 48.2°F9.0°C 32.8°F0.4°C 55% 1.0 mph NW1.6 kmh NW 11.0 mph17.7 kmh 29.70 in1005.8 mb 0.00 in0.0 mm 0.00 in0.0 mm 0.03 in0.8 mm
07:55 AM 48.2°F9.0°C 33.3°F0.7°C 56% 2.0 mph NW3.2 kmh NW 11.0 mph17.7 kmh 29.70 in1005.8 mb 0.00 in0.0 mm 0.00 in0.0 mm 0.03 in0.8 mm
07:50 AM 48.0°F8.9°C 32.2°F0.1°C 54% 2.0 mph NW3.2 kmh NW 11.0 mph17.7 kmh 29.70 in1005.8 mb 0.00 in0.0 mm 0.00 in0.0 mm 0.03 in0.8 mm
07:45 AM 48.0°F8.9°C 32.6°F0.3°C 55% 4.0 mph NW6.4 kmh NW 10.0 mph16.1 kmh 29.70 in1005.8 mb 0.00 in0.0 mm 0.00 in0.0 mm 0.03 in0.8 mm
07:40 AM 48.0°F8.9°C 33.1°F0.6°C 56% 2.0 mph SW3.2 kmh SW 8.0 mph12.9 kmh 29.70 in1005.8 mb 0.00 in0.0 mm 0.00 in0.0 mm 0.03 in0.8 mm
07:35 AM 48.0°F8.9°C 33.1°F0.6°C 56% 4.0 mph WNW6.4 kmh WNW 5.0 mph8.0 kmh 29.70 in1005.8 mb 0.00 in0.0 mm 0.00 in0.0 mm 0.03 in0.8 mm
07:30 AM 48.0°F8.9°C 33.1°F0.6°C 56% 2.0 mph W3.2 kmh W 12.0 mph19.3 kmh 29.68 in1005.1 mb 0.00 in0.0 mm 0.00 in0.0 mm 0.03 in0.8 mm
07:25 AM 48.0°F8.9°C 33.1°F0.6°C 56% Calm Calm 12.0 mph19.3 kmh 29.68 in1005.1 mb 0.00 in0.0 mm 0.00 in0.0 mm 0.03 in0.8 mm
07:20 AM 48.2°F9.0°C 33.3°F0.7°C 56% Calm Calm 12.0 mph19.3 kmh 29.68 in1005.1 mb 0.00 in0.0 mm 0.00 in0.0 mm 0.03 in0.8 mm
07:15 AM 48.3°F9.1°C 33.8°F1.0°C 57% 6.0 mph WNW9.7 kmh WNW 11.0 mph17.7 kmh 29.67 in1004.7 mb 0.00 in0.0 mm 0.00 in0.0 mm 0.03 in0.8 mm
07:10 AM 48.5°F9.2°C 34.0°F1.1°C 57% 2.0 mph N3.2 kmh N 11.0 mph17.7 kmh 29.67 in1004.7 mb 0.00 in0.0 mm 0.00 in0.0 mm 0.03 in0.8 mm
07:05 AM 48.6°F9.2°C 34.1°F1.2°C 57% 4.0 mph W6.4 kmh W 8.0 mph12.9 kmh 29.67 in1004.7 mb 0.00 in0.0 mm 0.00 in0.0 mm 0.03 in0.8 mm
07:00 AM 48.8°F9.3°C 34.3°F1.3°C 57% 1.0 mph NNW1.6 kmh NNW 11.0 mph17.7 kmh 29.66 in1004.4 mb 0.00 in0.0 mm 0.00 in0.0 mm 0.03 in0.8 mm
06:55 AM 49.1°F9.5°C 34.5°F1.4°C 57% 3.0 mph NW4.8 kmh NW 11.0 mph17.7 kmh 29.66 in1004.4 mb 0.00 in0.0 mm 0.00 in0.0 mm 0.03 in0.8 mm
06:50 AM 49.4°F9.7°C 34.8°F1.6°C 57% 2.0 mph NW3.2 kmh NW 11.0 mph17.7 kmh 29.66 in1004.4 mb 0.00 in0.0 mm 0.00 in0.0 mm 0.03 in0.8 mm
06:45 AM 49.5°F9.7°C 34.5°F1.4°C 56% 7.0 mph W11.3 kmh W 14.0 mph22.5 kmh 29.66 in1004.4 mb 0.00 in0.0 mm 0.00 in0.0 mm 0.03 in0.8 mm
06:40 AM 49.6°F9.8°C 35.0°F1.7°C 57% 6.0 mph NW9.7 kmh NW 11.0 mph17.7 kmh 29.65 in1004.1 mb 0.00 in0.0 mm 0.00 in0.0 mm 0.03 in0.8 mm
06:35 AM 49.8°F9.9°C 36.1°F2.3°C 59% 7.0 mph WSW11.3 kmh WSW 8.0 mph12.9 kmh 29.65 in1004.1 mb 0.00 in0.0 mm 0.00 in0.0 mm 0.03 in0.8 mm
06:30 AM 49.9°F9.9°C 36.2°F2.3°C 59% 1.0 mph W1.6 kmh W 13.0 mph20.9 kmh 29.64 in1003.7 mb 0.00 in0.0 mm 0.00 in0.0 mm 0.03 in0.8 mm
06:25 AM 50.2°F10.1°C 36.4°F2.4°C 59% 2.0 mph WNW3.2 kmh WNW 10.0 mph16.1 kmh 29.64 in1003.7 mb 0.00 in0.0 mm 0.00 in0.0 mm 0.03 in0.8 mm
06:20 AM 50.2°F10.1°C 36.4°F2.4°C 59% 2.0 mph NW3.2 kmh NW 7.0 mph11.3 kmh 29.64 in1003.7 mb 0.00 in0.0 mm 0.00 in0.0 mm 0.03 in0.8 mm
06:15 AM 50.4°F10.2°C 36.6°F2.6°C 59% 4.0 mph NW6.4 kmh NW 10.0 mph16.1 kmh 29.63 in1003.4 mb 0.00 in0.0 mm 0.00 in0.0 mm 0.03 in0.8 mm
06:10 AM 50.7°F10.4°C 36.9°F2.7°C 59% 1.0 mph WNW1.6 kmh WNW 7.0 mph11.3 kmh 29.63 in1003.4 mb 0.00 in0.0 mm 0.00 in0.0 mm 0.03 in0.8 mm
06:05 AM 50.8°F10.4°C 36.6°F2.6°C 58% 1.0 mph W1.6 kmh W 7.0 mph11.3 kmh 29.63 in1003.4 mb 0.00 in0.0 mm 0.00 in0.0 mm 0.03 in0.8 mm
06:00 AM 51.0°F10.6°C 36.8°F2.7°C 58% 3.0 mph NW4.8 kmh NW 10.0 mph16.1 kmh 29.62 in1003.0 mb 0.00 in0.0 mm 0.00 in0.0 mm 0.03 in0.8 mm
05:55 AM 51.3°F10.7°C 37.5°F3.1°C 59% 3.0 mph NNW4.8 kmh NNW 10.0 mph16.1 kmh 29.62 in1003.0 mb 0.00 in0.0 mm 0.00 in0.0 mm 0.03 in0.8 mm
05:50 AM 51.4°F10.8°C 37.1°F2.8°C 58% 3.0 mph W4.8 kmh W 10.0 mph16.1 kmh 29.62 in1003.0 mb 0.00 in0.0 mm 0.00 in0.0 mm 0.03 in0.8 mm
05:45 AM 51.6°F10.9°C 37.8°F3.2°C 59% 13.0 mph W20.9 kmh W 14.0 mph22.5 kmh 29.62 in1003.0 mb 0.00 in0.0 mm 0.00 in0.0 mm 0.03 in0.8 mm
05:40 AM 51.9°F11.1°C 38.0°F3.3°C 59% 3.0 mph NNW4.8 kmh NNW 11.0 mph17.7 kmh 29.61 in1002.7 mb 0.00 in0.0 mm 0.00 in0.0 mm 0.03 in0.8 mm
05:35 AM 52.0°F11.1°C 38.1°F3.4°C 59% 4.0 mph W6.4 kmh W 7.0 mph11.3 kmh 29.61 in1002.7 mb 0.00 in0.0 mm 0.00 in0.0 mm 0.03 in0.8 mm
05:30 AM 52.2°F11.2°C 38.3°F3.5°C 59% 2.0 mph W3.2 kmh W 8.0 mph12.9 kmh 29.60 in1002.4 mb 0.00 in0.0 mm 0.00 in0.0 mm 0.03 in0.8 mm
05:25 AM 52.3°F11.3°C 38.8°F3.8°C 60% 3.0 mph WSW4.8 kmh WSW 8.0 mph12.9 kmh 29.60 in1002.4 mb 0.00 in0.0 mm 0.00 in0.0 mm 0.03 in0.8 mm
05:20 AM 52.6°F11.4°C 39.6°F4.2°C 61% 5.0 mph NW8.0 kmh NW 7.0 mph11.3 kmh 29.60 in1002.4 mb 0.00 in0.0 mm 0.00 in0.0 mm 0.03 in0.8 mm
05:15 AM 52.9°F11.6°C 40.3°F4.6°C 62% 5.0 mph WSW8.0 kmh WSW 13.0 mph20.9 kmh 29.58 in1001.7 mb 0.00 in0.0 mm 0.00 in0.0 mm 0.03 in0.8 mm
05:10 AM 53.1°F11.7°C 40.0°F4.4°C 61% 7.0 mph W11.3 kmh W 13.0 mph20.9 kmh 29.58 in1001.7 mb 0.00 in0.0 mm 0.00 in0.0 mm 0.03 in0.8 mm
05:05 AM 53.2°F11.8°C 40.5°F4.7°C 62% 2.0 mph W3.2 kmh W 8.0 mph12.9 kmh 29.58 in1001.7 mb 0.00 in0.0 mm 0.00 in0.0 mm 0.03 in0.8 mm
05:00 AM 53.5°F11.9°C 40.8°F4.9°C 62% Calm Calm 10.0 mph16.1 kmh 29.57 in1001.4 mb 0.00 in0.0 mm 0.00 in0.0 mm 0.03 in0.8 mm
04:55 AM 53.6°F12.0°C 40.5°F4.7°C 61% Calm Calm 10.0 mph16.1 kmh 29.57 in1001.4 mb 0.00 in0.0 mm 0.00 in0.0 mm 0.03 in0.8 mm
04:50 AM 53.9°F12.2°C 41.2°F5.1°C 62% 3.0 mph W4.8 kmh W 10.0 mph16.1 kmh 29.57 in1001.4 mb 0.00 in0.0 mm 0.00 in0.0 mm 0.03 in0.8 mm
04:45 AM 54.1°F12.3°C 41.8°F5.4°C 63% 3.0 mph NNW4.8 kmh NNW 12.0 mph19.3 kmh 29.57 in1001.4 mb 0.00 in0.0 mm 0.00 in0.0 mm 0.03 in0.8 mm
04:40 AM 54.5°F12.5°C 42.2°F5.7°C 63% Calm Calm 12.0 mph19.3 kmh 29.55 in1000.7 mb 0.00 in0.0 mm 0.00 in0.0 mm 0.03 in0.8 mm
04:35 AM 54.8°F12.7°C 42.5°F5.8°C 63% 12.0 mph W19.3 kmh W 12.0 mph19.3 kmh 29.55 in1000.7 mb 0.00 in0.0 mm 0.00 in0.0 mm 0.03 in0.8 mm
04:30 AM 55.1°F12.8°C 42.3°F5.7°C 62% 3.0 mph W4.8 kmh W 18.0 mph29.0 kmh 29.53 in1000.0 mb 0.00 in0.0 mm 0.00 in0.0 mm 0.03 in0.8 mm
04:25 AM 55.4°F13.0°C 43.0°F6.1°C 63% 3.0 mph W4.8 kmh W 18.0 mph29.0 kmh 29.53 in1000.0 mb 0.00 in0.0 mm 0.00 in0.0 mm 0.03 in0.8 mm
04:20 AM 55.7°F13.2°C 44.5°F6.9°C 66% 14.0 mph WNW22.5 kmh WNW 18.0 mph29.0 kmh 29.53 in1000.0 mb 0.00 in0.0 mm 0.00 in0.0 mm 0.03 in0.8 mm
04:15 AM 56.3°F13.5°C 48.8°F9.3°C 76% 1.0 mph WNW1.6 kmh WNW 17.0 mph27.4 kmh 29.51 in999.3 mb 0.01 in0.3 mm 0.00 in0.0 mm 0.03 in0.8 mm
04:10 AM 56.6°F13.7°C 49.8°F9.9°C 78% 1.0 mph NW1.6 kmh NW 11.0 mph17.7 kmh 29.51 in999.3 mb 0.01 in0.3 mm 0.00 in0.0 mm 0.03 in0.8 mm
04:05 AM 56.7°F13.7°C 51.3°F10.7°C 82% 2.0 mph W3.2 kmh W 7.0 mph11.3 kmh 29.51 in999.3 mb 0.01 in0.3 mm 0.00 in0.0 mm 0.03 in0.8 mm
04:00 AM 56.7°F13.7°C 51.3°F10.7°C 82% 5.0 mph WSW8.0 kmh WSW 8.0 mph12.9 kmh 29.50 in999.0 mb 0.02 in0.5 mm 0.00 in0.0 mm 0.03 in0.8 mm
03:55 AM 56.7°F13.7°C 51.6°F10.9°C 83% 3.0 mph WSW4.8 kmh WSW 8.0 mph12.9 kmh 29.50 in999.0 mb 0.02 in0.5 mm 0.00 in0.0 mm 0.03 in0.8 mm
03:50 AM 56.7°F13.7°C 51.6°F10.9°C 83% 2.0 mph WSW3.2 kmh WSW 6.0 mph9.7 kmh 29.50 in999.0 mb 0.02 in0.5 mm 0.00 in0.0 mm 0.03 in0.8 mm
03:45 AM 56.9°F13.8°C 52.1°F11.2°C 84% 1.0 mph W1.6 kmh W 10.0 mph16.1 kmh 29.50 in999.0 mb 0.02 in0.5 mm 0.00 in0.0 mm 0.03 in0.8 mm
03:40 AM 57.0°F13.9°C 52.2°F11.2°C 84% 3.0 mph WSW4.8 kmh WSW 10.0 mph16.1 kmh 29.50 in999.0 mb 0.02 in0.5 mm 0.00 in0.0 mm 0.03 in0.8 mm
03:35 AM 57.0°F13.9°C 52.2°F11.2°C 84% 2.0 mph W3.2 kmh W 6.0 mph9.7 kmh 29.50 in999.0 mb 0.02 in0.5 mm 0.00 in0.0 mm 0.03 in0.8 mm
03:30 AM 57.2°F14.0°C 52.4°F11.3°C 84% 3.0 mph W4.8 kmh W 6.0 mph9.7 kmh 29.49 in998.6 mb 0.02 in0.5 mm 0.00 in0.0 mm 0.03 in0.8 mm
03:25 AM 57.2°F14.0°C 52.4°F11.3°C 84% 1.0 mph WSW1.6 kmh WSW 6.0 mph9.7 kmh 29.49 in998.6 mb 0.02 in0.5 mm 0.00 in0.0 mm 0.03 in0.8 mm
03:20 AM 57.3°F14.1°C 52.5°F11.4°C 84% 3.0 mph WSW4.8 kmh WSW 6.0 mph9.7 kmh 29.49 in998.6 mb 0.02 in0.5 mm 0.00 in0.0 mm 0.03 in0.8 mm
03:15 AM 57.5°F14.2°C 52.7°F11.5°C 84% 1.0 mph SW1.6 kmh SW 8.0 mph12.9 kmh 29.48 in998.3 mb 0.02 in0.5 mm 0.12 in3.0 mm 0.03 in0.8 mm
03:10 AM 57.6°F14.2°C 52.8°F11.6°C 84% Calm Calm 8.0 mph12.9 kmh 29.48 in998.3 mb 0.01 in0.3 mm 0.00 in0.0 mm 0.02 in0.5 mm
03:05 AM 57.8°F14.3°C 52.7°F11.5°C 83% 1.0 mph WSW1.6 kmh WSW 8.0 mph12.9 kmh 29.48 in998.3 mb 0.01 in0.3 mm 0.00 in0.0 mm 0.02 in0.5 mm
03:00 AM 58.0°F14.4°C 53.2°F11.8°C 84% 2.0 mph WSW3.2 kmh WSW 7.0 mph11.3 kmh 29.48 in998.3 mb 0.02 in0.5 mm 0.00 in0.0 mm 0.02 in0.5 mm
02:55 AM 58.3°F14.6°C 53.5°F11.9°C 84% Calm Calm 7.0 mph11.3 kmh 29.48 in998.3 mb 0.02 in0.5 mm 0.12 in3.0 mm 0.02 in0.5 mm
02:50 AM 58.3°F14.6°C 53.8°F12.1°C 85% 2.0 mph SW3.2 kmh SW 3.0 mph4.8 kmh 29.48 in998.3 mb 0.01 in0.3 mm 0.00 in0.0 mm 0.01 in0.3 mm
02:45 AM 58.3°F14.6°C 53.8°F12.1°C 85% 1.0 mph SW1.6 kmh SW 3.0 mph4.8 kmh 29.48 in998.3 mb 0.01 in0.3 mm 0.00 in0.0 mm 0.01 in0.3 mm
02:40 AM 58.4°F14.7°C 54.2°F12.3°C 86% 1.0 mph SW1.6 kmh SW 2.0 mph3.2 kmh 29.46 in997.6 mb 0.01 in0.3 mm 0.00 in0.0 mm 0.01 in0.3 mm
02:35 AM 58.6°F14.8°C 54.4°F12.4°C 86% Calm Calm 1.0 mph1.6 kmh 29.46 in997.6 mb 0.01 in0.3 mm 0.00 in0.0 mm 0.01 in0.3 mm
02:30 AM 58.7°F14.8°C 54.5°F12.5°C 86% Calm Calm 1.0 mph1.6 kmh 29.46 in997.6 mb 0.01 in0.3 mm 0.00 in0.0 mm 0.01 in0.3 mm
02:25 AM 58.9°F14.9°C 54.4°F12.4°C 85% Calm Calm 1.0 mph1.6 kmh 29.46 in997.6 mb 0.01 in0.3 mm 0.00 in0.0 mm 0.01 in0.3 mm
02:20 AM 59.0°F15.0°C 54.5°F12.5°C 85% Calm Calm 1.0 mph1.6 kmh 29.46 in997.6 mb 0.01 in0.3 mm 0.00 in0.0 mm 0.01 in0.3 mm
02:15 AM 59.3°F15.2°C 54.5°F12.5°C 84% Calm Calm 7.0 mph11.3 kmh 29.48 in998.3 mb 0.01 in0.3 mm 0.00 in0.0 mm 0.01 in0.3 mm
02:10 AM 59.6°F15.3°C 54.4°F12.4°C 83% 1.0 mph WSW1.6 kmh WSW 7.0 mph11.3 kmh 29.48 in998.3 mb 0.01 in0.3 mm 0.00 in0.0 mm 0.01 in0.3 mm
02:05 AM 60.1°F15.6°C 54.6°F12.6°C 82% Calm Calm 5.0 mph8.0 kmh 29.48 in998.3 mb 0.01 in0.3 mm 0.00 in0.0 mm 0.01 in0.3 mm
02:00 AM 60.7°F15.9°C 54.5°F12.5°C 80% 1.0 mph WSW1.6 kmh WSW 7.0 mph11.3 kmh 29.46 in997.6 mb 0.01 in0.3 mm 0.00 in0.0 mm 0.01 in0.3 mm
01:55 AM 61.5°F16.4°C 54.6°F12.6°C 78% Calm Calm 7.0 mph11.3 kmh 29.46 in997.6 mb 0.01 in0.3 mm 0.12 in3.0 mm 0.01 in0.3 mm
01:50 AM 62.3°F16.8°C 53.9°F12.2°C 74% 2.0 mph SW3.2 kmh SW 7.0 mph11.3 kmh 29.46 in997.6 mb 0.00 in0.0 mm 0.00 in0.0 mm 0.00 in0.0 mm
01:45 AM 62.9°F17.2°C 53.0°F11.7°C 70% 2.0 mph WSW3.2 kmh WSW 8.0 mph12.9 kmh 29.46 in997.6 mb 0.00 in0.0 mm 0.00 in0.0 mm 0.00 in0.0 mm
01:40 AM 62.7°F17.1°C 51.6°F10.9°C 67% Calm Calm 4.0 mph6.4 kmh 29.42 in996.3 mb 0.00 in0.0 mm 0.00 in0.0 mm 0.00 in0.0 mm
01:35 AM 62.6°F17.0°C 51.5°F10.8°C 67% 2.0 mph WNW3.2 kmh WNW 4.0 mph6.4 kmh 29.42 in996.3 mb 0.00 in0.0 mm 0.00 in0.0 mm 0.00 in0.0 mm
01:30 AM 62.6°F17.0°C 51.5°F10.8°C 67% Calm Calm 6.0 mph9.7 kmh 29.41 in995.9 mb 0.00 in0.0 mm 0.00 in0.0 mm 0.00 in0.0 mm
01:25 AM 62.7°F17.1°C 51.6°F10.9°C 67% Calm Calm 6.0 mph9.7 kmh 29.41 in995.9 mb 0.00 in0.0 mm 0.00 in0.0 mm 0.00 in0.0 mm
01:20 AM 62.9°F17.2°C 52.2°F11.2°C 68% 1.0 mph ESE1.6 kmh ESE 6.0 mph9.7 kmh 29.41 in995.9 mb 0.00 in0.0 mm 0.00 in0.0 mm 0.00 in0.0 mm
01:15 AM 63.1°F17.3°C 52.0°F11.1°C 67% 2.0 mph ESE3.2 kmh ESE 7.0 mph11.3 kmh 29.42 in996.3 mb 0.00 in0.0 mm 0.00 in0.0 mm 0.00 in0.0 mm
01:10 AM 62.9°F17.2°C 51.0°F10.6°C 65% 2.0 mph SSE3.2 kmh SSE 7.0 mph11.3 kmh 29.42 in996.3 mb 0.00 in0.0 mm 0.00 in0.0 mm 0.00 in0.0 mm
01:05 AM 62.9°F17.2°C 51.0°F10.6°C 65% 1.0 mph ESE1.6 kmh ESE 7.0 mph11.3 kmh 29.42 in996.3 mb 0.00 in0.0 mm 0.00 in0.0 mm 0.00 in0.0 mm
01:00 AM 62.6°F17.0°C 51.1°F10.6°C 66% 3.0 mph SE4.8 kmh SE 9.0 mph14.5 kmh 29.43 in996.6 mb 0.00 in0.0 mm 0.00 in0.0 mm 0.00 in0.0 mm
12:55 AM 62.6°F17.0°C 51.1°F10.6°C 66% Calm Calm 9.0 mph14.5 kmh 29.43 in996.6 mb 0.00 in0.0 mm 0.00 in0.0 mm 0.00 in0.0 mm
12:50 AM 62.3°F16.8°C 50.8°F10.4°C 66% 1.0 mph E1.6 kmh E 5.0 mph8.0 kmh 29.43 in996.6 mb 0.00 in0.0 mm 0.00 in0.0 mm 0.00 in0.0 mm
12:45 AM 62.3°F16.8°C 50.8°F10.4°C 66% 1.0 mph E1.6 kmh E 7.0 mph11.3 kmh 29.43 in996.6 mb 0.00 in0.0 mm 0.00 in0.0 mm 0.00 in0.0 mm
12:40 AM 62.1°F16.7°C 50.6°F10.3°C 66% 1.0 mph E1.6 kmh E 7.0 mph11.3 kmh 29.43 in996.6 mb 0.00 in0.0 mm 0.00 in0.0 mm 0.00 in0.0 mm
12:35 AM 62.1°F16.7°C 50.6°F10.3°C 66% Calm Calm 5.0 mph8.0 kmh 29.43 in996.6 mb 0.00 in0.0 mm 0.00 in0.0 mm 0.00 in0.0 mm
12:30 AM 62.1°F16.7°C 50.6°F10.3°C 66% Calm Calm 5.0 mph8.0 kmh 29.43 in996.6 mb 0.00 in0.0 mm 0.00 in0.0 mm 0.00 in0.0 mm
12:25 AM 62.0°F16.7°C 50.5°F10.3°C 66% 1.0 mph ESE1.6 kmh ESE 5.0 mph8.0 kmh 29.43 in996.6 mb 0.00 in0.0 mm 0.00 in0.0 mm 0.00 in0.0 mm
12:20 AM 62.0°F16.7°C 50.5°F10.3°C 66% 2.0 mph ENE3.2 kmh ENE 2.0 mph3.2 kmh 29.43 in996.6 mb 0.00 in0.0 mm 0.00 in0.0 mm 0.00 in0.0 mm
12:15 AM 61.8°F16.6°C 50.3°F10.2°C 66% 2.0 mph ENE3.2 kmh ENE 11.0 mph17.7 kmh 29.45 in997.3 mb 0.00 in0.0 mm 0.00 in0.0 mm 0.00 in0.0 mm
12:10 AM 61.8°F16.6°C 50.3°F10.2°C 66% 5.0 mph SE8.0 kmh SE 11.0 mph17.7 kmh 29.45 in997.3 mb 0.00 in0.0 mm 0.00 in0.0 mm 0.00 in0.0 mm
12:05 AM 61.6°F16.4°C 50.1°F10.1°C 66% 1.0 mph SE1.6 kmh SE 11.0 mph17.7 kmh 29.45 in997.3 mb 0.00 in0.0 mm 0.00 in0.0 mm 0.00 in0.0 mm
12:00 AM 61.6°F16.4°C 50.1°F10.1°C 66% Calm Calm 5.0 mph8.0 kmh 29.45 in997.3 mb 0.00 in0.0 mm 0.00 in0.0 mm 0.00 in0.0 mm